Time;durP1;ratioP1;P1;durP2;ratioP2;P2;SDS_P1;SDS_P2;PMS_P1;PMS_P2;Temp;Humidity;BMP_temperature;BMP_pressure;BME280_temperature;BME280_humidity;BME280_pressure;Samples;Min_cycle;Max_cycle;Signal;HPM_P1;HPM_P2
2023/08/25 00:01:18;;;;;;;0.00;0.00;;;;;;;13.36;69.84;99889.44;5027356;28;20043;-79
2023/08/25 00:03:43;;;;;;;0.00;0.00;;;;;;;13.34;70.30;99888.91;5015843;28;20032;-78
2023/08/25 00:06:09;;;;;;;0.00;0.00;;;;;;;13.17;69.99;99880.34;4998237;28;20030;-77
2023/08/25 00:08:35;;;;;;;0.00;0.00;;;;;;;13.06;70.30;99868.72;5014629;28;20467;-75
2023/08/25 00:11:00;;;;;;;0.00;0.00;;;;;;;13.03;70.59;99875.59;5008727;28;20013;-76
2023/08/25 00:13:26;;;;;;;0.00;0.00;;;;;;;12.98;70.82;99886.66;5002991;28;20029;-75
2023/08/25 00:16:09;;;;;;;0.00;0.00;;;;;;;12.79;71.28;99869.34;5028766;28;20483;-77
2023/08/25 00:18:34;;;;;;;0.00;0.00;;;;;;;12.86;72.31;99892.56;5028875;28;20100;-77
2023/08/25 00:21:00;;;;;;;0.00;0.00;;;;;;;12.72;72.76;99876.00;5009262;28;20033;-76
2023/08/25 00:23:25;;;;;;;0.00;0.00;;;;;;;12.63;73.64;99872.31;4985566;28;20026;-77
2023/08/25 00:25:53;;;;;;;0.00;0.00;;;;;;;12.70;74.06;99897.44;4994998;28;20029;-77
2023/08/25 00:28:20;;;;;;;0.00;0.00;;;;;;;12.56;74.54;99885.53;5013764;28;20082;-77
2023/08/25 00:30:47;;;;;;;0.00;0.00;;;;;;;12.57;75.35;99895.38;5016238;28;20448;-76
2023/08/25 00:33:15;;;;;;;0.00;0.00;;;;;;;12.37;75.16;99880.81;5027008;28;20041;-77
2023/08/25 00:35:52;;;;;;;;;;;;;;;;;;;;;
2023/08/25 00:38:18;;;;;;;0.00;0.00;;;;;;;12.44;76.67;99885.13;5020998;28;20099;-76
2023/08/25 00:40:46;;;;;;;0.00;0.00;;;;;;;12.37;76.34;99880.81;4989275;28;20454;-76
2023/08/25 00:43:13;;;;;;;0.00;0.00;;;;;;;12.36;76.99;99884.66;5031131;28;20051;-76
2023/08/25 00:45:41;;;;;;;0.00;0.00;;;;;;;12.34;76.71;99878.66;5006865;28;20026;-76
2023/08/25 00:48:08;;;;;;;0.00;0.00;;;;;;;12.34;77.70;99886.88;5024050;28;20649;-77
2023/08/25 00:50:34;;;;;;;0.00;0.00;;;;;;;12.33;78.00;99887.97;5009826;28;20549;-77
2023/08/25 00:53:03;;;;;;;0.00;0.00;;;;;;;12.28;78.67;99882.56;5026165;28;20644;-77
2023/08/25 00:55:30;;;;;;;0.00;0.00;;;;;;;12.34;77.94;99903.34;5005341;28;20487;-76
2023/08/25 00:57:57;;;;;;;0.00;0.00;;;;;;;12.27;78.76;99891.91;5010145;28;20805;-77
2023/08/25 01:00:24;;;;;;;0.00;0.00;;;;;;;12.20;78.83;99885.94;5005443;28;20033;-75
2023/08/25 01:03:00;;;;;;;0.00;0.00;;;;;;;12.24;79.18;99911.66;5010861;28;20041;-78
2023/08/25 01:05:26;;;;;;;0.00;0.00;;;;;;;12.08;79.69;99893.75;4997487;28;20029;-78
2023/08/25 01:07:51;;;;;;;0.00;0.00;;;;;;;12.00;79.71;99893.25;4985071;28;20033;-77
2023/08/25 01:10:24;;;;;;;0.00;0.00;;;;;;;12.01;79.98;99888.59;4995459;28;20117;-77
2023/08/25 01:13:15;;;;;;;;;;;;;;;;;;;;;
2023/08/25 01:15:46;;;;;;;0.00;0.00;;;;;;;11.86;79.90;99882.13;5021850;28;20039;-77
2023/08/25 01:18:33;;;;;;;0.00;0.00;;;;;;;11.96;80.58;99908.63;5006056;28;20072;-77
2023/08/25 01:21:03;;;;;;;0.00;0.00;;;;;;;11.88;80.04;99906.47;4993694;28;20029;-77
2023/08/25 01:23:54;;;;;;;;;;;;;;;;;;;;;
2023/08/25 01:26:20;;;;;;;0.00;0.00;;;;;;;11.77;79.85;99891.22;5015691;28;20034;-78
2023/08/25 01:28:51;;;;;;;0.00;0.00;;;;;;;11.68;80.16;99880.91;5019237;28;20028;-78
2023/08/25 01:31:19;;;;;;;0.00;0.00;;;;;;;11.57;79.87;99873.88;4986499;28;20025;-77
2023/08/25 01:33:58;;;;;;;;;;;;;;;;;;;;;
2023/08/25 01:36:49;;;;;;;0.00;0.00;;;;;;;11.33;79.70;99880.06;5017103;28;20027;-78
2023/08/25 01:39:25;;;;;;;0.00;0.00;;;;;;;11.31;79.64;99885.00;5008645;28;20022;-79
2023/08/25 01:42:33;;;;;;;;;;;;;;;;;;;;;
2023/08/25 01:45:05;;;;;;;0.00;0.00;;;;;;;11.12;79.97;99878.56;5019221;28;20041;-79
2023/08/25 01:47:34;;;;;;;0.00;0.00;;;;;;;11.10;80.15;99886.25;5007260;28;20061;-79
2023/08/25 01:50:08;;;;;;;0.00;0.00;;;;;;;10.98;80.02;99871.00;5001901;28;20026;-75
2023/08/25 01:52:33;;;;;;;0.00;0.00;;;;;;;10.99;80.50;99886.31;5004623;28;20056;-74
2023/08/25 01:55:05;;;;;;;0.00;0.00;;;;;;;10.81;80.81;99878.75;4998295;28;20057;-74
2023/08/25 01:57:30;;;;;;;0.00;0.00;;;;;;;10.83;80.58;99887.47;4998436;28;20030;-74
2023/08/25 01:59:58;;;;;;;0.00;0.00;;;;;;;10.82;80.28;99892.13;5005048;28;20488;-76
2023/08/25 02:02:24;;;;;;;0.00;0.00;;;;;;;10.84;80.53;99905.53;5010629;28;20479;-74
2023/08/25 02:04:49;;;;;;;0.00;0.00;;;;;;;10.75;80.82;99890.81;4999187;28;20034;-77
2023/08/25 02:07:17;;;;;;;0.00;0.00;;;;;;;10.68;80.55;99895.75;4985079;28;20033;-76
2023/08/25 02:09:42;;;;;;;0.00;0.00;;;;;;;10.70;80.76;99904.47;5004312;28;20026;-75
2023/08/25 02:12:08;;;;;;;0.00;0.00;;;;;;;10.59;80.66;99888.13;4999973;28;20030;-75
2023/08/25 02:14:33;;;;;;;0.00;0.00;;;;;;;10.59;81.26;99899.06;4968082;28;20033;-76
2023/08/25 02:17:01;;;;;;;0.00;0.00;;;;;;;10.65;80.78;99908.06;4988274;28;20117;-75
2023/08/25 02:19:27;;;;;;;0.10;0.10;;;;;;;10.55;80.99;99892.50;5004875;28;20109;-76
2023/08/25 02:21:55;;;;;;;0.00;0.00;;;;;;;10.51;81.27;99896.06;5002172;28;20044;-75
2023/08/25 02:24:20;;;;;;;0.00;0.00;;;;;;;10.45;81.27;99903.47;4992118;28;20034;-75
2023/08/25 02:26:46;;;;;;;0.00;0.00;;;;;;;10.36;81.29;99894.22;4983549;28;20029;-75
2023/08/25 02:29:16;;;;;;;0.00;0.00;;;;;;;10.32;81.45;99899.38;4975604;28;20033;-75
2023/08/25 02:31:41;;;;;;;0.00;0.00;;;;;;;10.31;81.97;99900.50;5002924;28;20036;-75
2023/08/25 02:34:07;;;;;;;0.00;0.00;;;;;;;10.30;82.05;99896.09;5001454;28;20030;-75
2023/08/25 02:36:34;;;;;;;0.00;0.00;;;;;;;10.25;82.02;99891.47;5003723;28;20065;-76
2023/08/25 02:39:03;;;;;;;0.00;0.00;;;;;;;10.29;81.94;99899.94;5009564;28;20041;-75
2023/08/25 02:41:31;;;;;;;0.00;0.00;;;;;;;10.19;81.98;99889.88;4983629;28;20044;-76
2023/08/25 02:43:56;;;;;;;0.00;0.00;;;;;;;10.23;82.49;99890.91;4994469;28;20498;-78
2023/08/25 02:46:21;;;;;;;0.00;0.00;;;;;;;10.17;82.39;99881.09;5019617;28;20068;-78
2023/08/25 02:48:49;;;;;;;0.00;0.00;;;;;;;10.14;82.96;99877.00;5004036;28;20382;-76
2023/08/25 02:51:17;;;;;;;0.00;0.00;;;;;;;10.12;82.56;99872.94;5003648;28;20041;-80
2023/08/25 02:53:42;;;;;;;0.00;0.00;;;;;;;10.14;82.61;99868.00;5001397;28;20021;-81
2023/08/25 02:56:10;;;;;;;0.00;0.00;;;;;;;10.23;82.68;99884.66;5009851;28;20172;-76
2023/08/25 02:58:36;;;;;;;0.00;0.00;;;;;;;10.15;82.63;99877.84;4988602;28;20028;-78
2023/08/25 03:01:13;;;;;;;0.00;0.00;;;;;;;10.23;83.28;99885.44;5002509;28;20037;-75
2023/08/25 03:03:38;;;;;;;0.00;0.00;;;;;;;10.27;83.08;99892.00;5002810;28;20034;-78
2023/08/25 03:06:04;;;;;;;0.00;0.00;;;;;;;10.27;82.78;99881.06;4989899;28;20055;-78
2023/08/25 03:08:29;;;;;;;0.00;0.00;;;;;;;10.16;82.75;99868.53;4983449;28;20033;-79
2023/08/25 03:11:03;;;;;;;0.00;0.00;;;;;;;10.19;82.61;99876.19;4976418;28;20022;-78
2023/08/25 03:13:29;;;;;;;0.00;0.00;;;;;;;10.18;82.99;99880.00;4998787;28;20472;-77
2023/08/25 03:15:55;;;;;;;0.00;0.00;;;;;;;10.17;83.14;99875.63;5000250;28;20543;-78
2023/08/25 03:18:20;;;;;;;0.10;0.10;;;;;;;10.20;83.31;99874.28;4998984;28;20117;-78
2023/08/25 03:20:51;;;;;;;0.00;0.00;;;;;;;10.26;83.00;99886.81;5030071;28;20477;-78
2023/08/25 03:23:19;;;;;;;0.00;0.00;;;;;;;10.18;82.89;99877.28;4988692;28;20036;-77
2023/08/25 03:25:45;;;;;;;0.00;0.00;;;;;;;10.17;83.19;99874.84;5011879;28;20507;-79
2023/08/25 03:28:10;;;;;;;0.00;0.00;;;;;;;10.15;83.09;99872.38;4978878;28;20030;-77
2023/08/25 03:30:37;;;;;;;0.00;0.00;;;;;;;10.11;83.31;99871.28;4971328;28;20052;-77
2023/08/25 03:33:03;;;;;;;0.00;0.00;;;;;;;9.98;83.30;99864.47;5009849;28;20030;-77
2023/08/25 03:35:34;;;;;;;0.00;0.00;;;;;;;9.98;83.43;99860.94;4961244;28;20113;-76
2023/08/25 03:38:08;;;;;;;0.00;0.00;;;;;;;9.85;83.17;99857.66;5003626;28;20017;-79
2023/08/25 03:40:44;;;;;;;0.00;0.00;;;;;;;9.91;83.35;99864.75;4995944;28;20024;-77
2023/08/25 03:43:20;;;;;;;0.00;0.00;;;;;;;9.61;83.77;99824.66;4987304;28;20702;-76
2023/08/25 03:45:55;;;;;;;0.00;0.00;;;;;;;9.76;83.63;99842.94;4987148;28;20033;-77
2023/08/25 03:48:20;;;;;;;0.00;0.00;;;;;;;9.77;84.13;99856.31;4997439;28;20032;-78
2023/08/25 03:50:51;;;;;;;0.00;0.00;;;;;;;9.74;83.96;99856.06;5006532;28;20021;-78
2023/08/25 03:53:27;;;;;;;0.00;0.00;;;;;;;9.67;83.76;99841.88;4987564;28;20179;-78
2023/08/25 03:56:05;;;;;;;;;;;;;;;;;;;;;
2023/08/25 03:58:30;;;;;;;0.00;0.00;;;;;;;9.49;84.18;99814.03;5024300;28;20037;-81
2023/08/25 04:01:05;;;;;;;0.00;0.00;;;;;;;9.43;83.80;99801.44;5003847;28;20119;-80
2023/08/25 04:03:40;;;;;;;0.00;0.00;;;;;;;9.47;84.09;99805.28;4997055;28;20473;-78
2023/08/25 04:06:16;;;;;;;;;;;;;;;;;;;;;
2023/08/25 04:08:41;;;;;;;0.00;0.00;;;;;;;9.55;84.28;99832.03;5016782;28;20021;-80
2023/08/25 04:11:09;;;;;;;0.00;0.00;;;;;;;9.64;84.11;99856.03;5003662;28;20112;-78
2023/08/25 04:13:35;;;;;;;0.00;0.00;;;;;;;9.44;84.49;99842.13;4987288;28;20041;-78
2023/08/25 04:16:02;;;;;;;0.00;0.00;;;;;;;9.44;84.25;99849.50;5004759;28;20030;-78
2023/08/25 04:18:28;;;;;;;0.03;0.03;;;;;;;9.37;84.69;99855.22;5006419;28;20488;-77
2023/08/25 04:21:05;;;;;;;0.00;0.00;;;;;;;9.28;85.00;99842.41;5001808;28;20034;-77
2023/08/25 04:23:31;;;;;;;0.00;0.00;;;;;;;9.35;85.13;99864.78;5013632;28;20033;-77
2023/08/25 04:26:04;;;;;;;0.00;0.00;;;;;;;9.35;85.48;99865.59;4998669;28;20025;-78
2023/08/25 04:28:29;;;;;;;0.00;0.00;;;;;;;9.33;85.52;99872.41;5012465;28;20040;-78
2023/08/25 04:31:04;;;;;;;0.00;0.00;;;;;;;9.24;85.81;99869.38;4989366;28;20018;-77
2023/08/25 04:33:29;;;;;;;0.00;0.00;;;;;;;9.26;85.46;99889.88;4996002;28;20025;-77
2023/08/25 04:36:05;;;;;;;;;;;;;;;;;;;;;
2023/08/25 04:38:31;;;;;;;0.00;0.00;;;;;;;8.98;85.93;99844.81;4992950;28;20041;-77
2023/08/25 04:41:04;;;;;;;0.00;0.00;;;;;;;8.98;86.40;99842.09;5020944;28;20031;-77
2023/08/25 04:43:29;;;;;;;0.00;0.00;;;;;;;9.03;85.97;99846.72;5010291;28;20033;-77
2023/08/25 04:46:07;;;;;;;0.00;0.00;;;;;;;8.90;85.85;99832.50;4990448;28;20029;-79
2023/08/25 04:48:45;;;;;;;;;;;;;;;;;;;;;
2023/08/25 04:51:21;;;;;;;0.00;0.00;;;;;;;8.88;86.35;99844.78;5004136;28;20040;-76
2023/08/25 04:53:47;;;;;;;0.00;0.00;;;;;;;8.71;86.18;99829.47;5007604;28;20052;-77
2023/08/25 04:56:12;;;;;;;0.00;0.00;;;;;;;8.85;86.16;99846.13;4987771;28;20062;-77
2023/08/25 04:58:38;;;;;;;0.00;0.00;;;;;;;8.86;86.55;99858.69;4978942;28;20403;-77
2023/08/25 05:01:04;;;;;;;0.00;0.00;;;;;;;8.83;86.78;99847.50;5003555;28;20032;-76
2023/08/25 05:03:32;;;;;;;0.00;0.00;;;;;;;8.73;86.63;99831.91;4982310;28;20034;-77
2023/08/25 05:05:57;;;;;;;0.00;0.00;;;;;;;8.78;87.02;99842.84;5008799;28;20025;-77
2023/08/25 05:11:09;;;;;;;0.00;0.00;;;;;;;8.71;86.74;99836.81;5008665;28;20108;-77
2023/08/25 05:13:34;;;;;;;0.00;0.00;;;;;;;8.93;86.80;99868.53;5005377;28;20025;-80
2023/08/25 05:16:12;;;;;;;0.00;0.00;;;;;;;8.73;86.41;99838.22;5007590;28;20022;-77
2023/08/25 05:18:40;;;;;;;0.00;0.00;;;;;;;8.79;86.74;99852.69;4982093;28;20029;-77
2023/08/25 05:21:05;;;;;;;0.00;0.00;;;;;;;8.74;87.01;99849.91;5005009;28;20792;-78
2023/08/25 05:23:33;;;;;;;0.10;0.10;;;;;;;8.68;86.94;99834.63;5007120;28;20029;-77
2023/08/25 05:26:06;;;;;;;0.00;0.00;;;;;;;8.77;87.01;99849.38;5004484;28;20049;-76
2023/08/25 05:28:32;;;;;;;0.00;0.00;;;;;;;8.74;86.47;99839.81;4980138;28;20049;-76
2023/08/25 05:31:05;;;;;;;0.00;0.00;;;;;;;8.90;86.74;99848.06;4995392;28;20506;-76
2023/08/25 05:33:33;;;;;;;0.00;0.00;;;;;;;8.88;86.67;99842.88;4998014;28;20022;-76
2023/08/25 05:36:08;;;;;;;0.00;0.00;;;;;;;8.87;87.11;99843.94;4977828;28;20033;-78
2023/08/25 05:38:33;;;;;;;0.00;0.00;;;;;;;8.78;86.73;99834.66;4994435;28;20038;-77
2023/08/25 05:41:01;;;;;;;0.00;0.00;;;;;;;8.98;86.77;99863.06;4996333;28;20767;-77
2023/08/25 05:43:27;;;;;;;0.00;0.00;;;;;;;8.97;86.40;99851.34;4993951;28;20452;-76
2023/08/25 05:46:12;;;;;;;0.00;0.00;;;;;;;9.17;86.73;99866.94;4985193;28;20029;-77
2023/08/25 05:48:49;;;;;;;0.00;0.00;;;;;;;9.26;86.31;99870.75;5004690;28;20038;-76
2023/08/25 05:51:17;;;;;;;0.00;0.00;;;;;;;9.20;86.17;99847.31;4996669;28;20095;-76
2023/08/25 05:53:44;;;;;;;0.00;0.00;;;;;;;9.25;85.87;99833.66;5004534;28;20029;-76
2023/08/25 05:56:10;;;;;;;0.00;0.00;;;;;;;9.47;85.87;99862.59;4981282;28;20038;-77
2023/08/25 05:58:35;;;;;;;0.00;0.00;;;;;;;9.39;85.79;99838.59;5017145;28;20045;-76
2023/08/25 06:01:01;;;;;;;0.00;0.00;;;;;;;9.54;85.30;99835.84;4968695;28;20348;-76
2023/08/25 06:03:27;;;;;;;0.00;0.00;;;;;;;9.69;85.69;99853.31;4999482;28;20397;-74
2023/08/25 06:06:01;;;;;;;0.00;0.00;;;;;;;9.73;85.06;99846.22;5008983;28;20030;-77
2023/08/25 06:08:27;;;;;;;0.00;0.00;;;;;;;9.72;84.46;99836.38;4987620;28;20041;-79
2023/08/25 06:10:58;;;;;;;0.00;0.00;;;;;;;9.93;84.55;99862.56;4977914;28;20030;-77
2023/08/25 06:13:23;;;;;;;0.00;0.00;;;;;;;10.00;84.34;99870.47;5020355;28;20056;-76
2023/08/25 06:15:54;;;;;;;0.00;0.00;;;;;;;9.95;84.23;99851.38;5011411;28;20076;-76
2023/08/25 06:18:20;;;;;;;0.00;0.00;;;;;;;10.08;84.11;99856.25;5011003;28;20111;-76
2023/08/25 06:20:49;;;;;;;0.00;0.00;;;;;;;10.20;83.47;99853.22;5005216;28;20037;-76
2023/08/25 06:23:20;;;;;;;0.00;0.00;;;;;;;10.31;83.06;99864.97;4989888;28;20048;-77
2023/08/25 06:25:58;;;;;;;;;;;;;;;;;;;;;
2023/08/25 06:28:42;;;;;;;0.00;0.00;;;;;;;10.45;83.22;99848.81;4994102;28;20498;-79
2023/08/25 06:31:19;;;;;;;0.00;0.00;;;;;;;10.71;82.38;99862.38;5030879;28;20431;-75
2023/08/25 06:34:08;;;;;;;0.00;0.00;;;;;;;10.72;82.48;99853.06;5000497;28;20045;-75
2023/08/25 06:36:36;;;;;;;0.00;0.00;;;;;;;11.24;81.96;99881.75;5027753;28;20411;-75
2023/08/25 06:39:20;;;;;;;0.00;0.00;;;;;;;11.70;80.95;99884.16;5019147;28;20056;-78
2023/08/25 06:42:45;;;;;;;;;;;;;;;;;;;;;
2023/08/25 06:45:30;;;;;;;;;;;;;;;;;;;;;
2023/08/25 06:48:02;;;;;;;0.00;0.00;;;;;;;12.93;75.14;99848.31;5015428;28;20025;-77
2023/08/25 06:50:45;;;;;;;;;;;;;;;;;;;;;
2023/08/25 06:53:19;;;;;;;0.00;0.00;;;;;;;13.51;74.34;99901.31;5003875;28;20018;-77
2023/08/25 06:56:06;;;;;;;0.00;0.00;;;;;;;13.38;73.71;99857.00;5012698;28;20056;-76
2023/08/25 06:58:39;;;;;;;0.00;0.00;;;;;;;13.68;73.45;99890.59;4987500;28;20479;-76
2023/08/25 07:01:30;;;;;;;;;;;;;;;;;;;;;
2023/08/25 07:03:59;;;;;;;0.00;0.00;;;;;;;13.64;72.76;99873.09;4992664;28;20018;-75
2023/08/25 07:06:34;;;;;;;;;;;;;;;;;;;;;
2023/08/25 07:09:16;;;;;;;;;;;;;;;;;;;;;
2023/08/25 07:14:36;;;;;;;0.00;0.00;;;;;;;14.65;69.90;99879.75;4995733;28;20121;-76
2023/08/25 07:17:32;;;;;;;0.00;0.00;;;;;;;14.77;69.14;99875.69;4993986;28;20025;-76
2023/08/25 07:20:08;;;;;;;0.00;0.00;;;;;;;14.55;68.50;99865.38;4980257;28;20116;-76
2023/08/25 07:25:48;;;;;;;;;;;;;;;;;;;;;
2023/08/25 07:28:48;;;;;;;0.00;0.00;;;;;;;14.91;67.80;99875.66;5010115;28;20027;-77
2023/08/25 07:31:30;;;;;;;0.00;0.00;;;;;;;14.89;67.22;99855.88;4900034;29;20067;-76
2023/08/25 07:34:30;;;;;;;;;;;;;;;;;;;;;
2023/08/25 07:37:21;;;;;;;0.00;0.00;;;;;;;15.26;66.00;99864.97;4913776;29;20050;-77
2023/08/25 07:43:06;;;;;;;0.00;0.00;;;;;;;15.35;65.09;99852.09;4871162;29;20105;-77
2023/08/25 07:45:43;;;;;;;0.00;0.00;;;;;;;15.43;64.75;99839.50;4887675;29;20058;-78
2023/08/25 07:51:23;;;;;;;0.00;0.00;;;;;;;16.18;63.32;99856.38;5016645;28;20036;-78
2023/08/25 07:53:51;;;;;;;0.00;0.00;;;;;;;16.39;62.76;99856.63;4984228;28;20120;-77
2023/08/25 07:59:10;;;;;;;0.00;0.00;;;;;;;16.60;61.93;99815.44;5003410;28;20780;-74
2023/08/25 08:01:36;;;;;;;0.00;0.00;;;;;;;16.75;61.59;99853.63;4997493;28;20034;-74
2023/08/25 08:04:03;;;;;;;0.00;0.00;;;;;;;16.56;62.15;99851.16;4996413;28;20042;-74
2023/08/25 08:06:28;;;;;;;0.00;0.00;;;;;;;16.38;62.63;99849.47;4996537;28;20048;-75
2023/08/25 08:08:54;;;;;;;0.00;0.00;;;;;;;16.21;63.05;99834.47;4984521;28;20038;-74
2023/08/25 08:11:19;;;;;;;0.00;0.00;;;;;;;16.17;63.36;99832.66;4987295;28;21203;-75
2023/08/25 08:13:44;;;;;;;0.00;0.00;;;;;;;16.19;63.54;99842.25;4999176;28;20041;-75
2023/08/25 08:16:10;;;;;;;0.00;0.00;;;;;;;16.17;63.03;99855.53;4977423;28;20034;-75
2023/08/25 08:18:35;;;;;;;0.00;0.00;;;;;;;16.13;63.42;99860.06;4988498;28;20025;-75
2023/08/25 08:21:01;;;;;;;0.00;0.00;;;;;;;16.22;63.34;99851.81;4978349;28;20512;-74
2023/08/25 08:23:27;;;;;;;0.00;0.00;;;;;;;16.42;63.84;99852.41;4975988;28;20026;-73
2023/08/25 08:25:54;;;;;;;0.00;0.00;;;;;;;16.54;63.52;99847.91;4996126;28;20451;-75
2023/08/25 08:28:19;;;;;;;0.00;0.00;;;;;;;16.67;62.90;99856.38;4991272;28;20034;-75
2023/08/25 08:30:45;;;;;;;0.00;0.00;;;;;;;16.80;62.63;99869.22;4995437;28;20049;-74
2023/08/25 08:33:10;;;;;;;0.00;0.00;;;;;;;16.72;62.39;99832.19;4981200;28;20527;-73
2023/08/25 08:35:36;;;;;;;0.00;0.00;;;;;;;17.16;62.11;99868.19;4989633;28;20025;-74
2023/08/25 08:38:03;;;;;;;0.00;0.00;;;;;;;17.35;61.01;99867.06;5015086;28;20572;-74
2023/08/25 08:40:32;;;;;;;0.00;0.00;;;;;;;17.56;61.03;99870.78;5010112;28;20034;-74
2023/08/25 08:43:03;;;;;;;0.00;0.00;;;;;;;17.83;60.62;99868.81;4988616;28;20034;-74
2023/08/25 08:45:34;;;;;;;0.00;0.00;;;;;;;17.99;59.44;99871.88;5018610;28;20030;-76
2023/08/25 08:48:02;;;;;;;0.00;0.00;;;;;;;18.10;59.07;99886.16;5000890;28;20084;-76
2023/08/25 08:50:28;;;;;;;0.00;0.00;;;;;;;18.20;59.04;99880.28;4989826;28;20030;-75
2023/08/25 08:52:55;;;;;;;0.00;0.00;;;;;;;18.22;58.04;99872.44;4983266;28;20654;-75
2023/08/25 08:55:21;;;;;;;0.00;0.00;;;;;;;18.35;57.79;99872.56;4994030;28;20136;-76
2023/08/25 08:57:47;;;;;;;0.00;0.00;;;;;;;18.45;57.37;99889.63;4976398;28;20108;-76
2023/08/25 09:00:14;;;;;;;0.00;0.00;;;;;;;18.58;57.11;99882.22;5008915;28;20104;-75
2023/08/25 09:02:51;;;;;;;0.00;0.00;;;;;;;18.63;56.41;99879.28;4994900;28;20060;-74
2023/08/25 09:05:21;;;;;;;0.00;0.00;;;;;;;18.63;56.90;99895.91;5017262;28;21079;-76
2023/08/25 09:07:52;;;;;;;0.00;0.00;;;;;;;18.58;57.06;99887.78;5002975;28;20029;-75
2023/08/25 09:10:18;;;;;;;0.00;0.00;;;;;;;18.48;56.74;99893.69;5016836;28;20099;-74
2023/08/25 09:12:43;;;;;;;0.00;0.00;;;;;;;18.28;57.16;99907.13;4987725;28;20026;-75
2023/08/25 09:15:24;;;;;;;0.00;0.00;;;;;;;17.98;57.96;99908.97;4974759;28;20071;-75
2023/08/25 09:17:59;;;;;;;0.00;0.00;;;;;;;17.59;58.63;99917.09;5009392;28;20055;-76
2023/08/25 09:20:25;;;;;;;0.00;0.00;;;;;;;17.46;59.49;99918.09;5016725;28;20030;-75
2023/08/25 09:22:55;;;;;;;0.00;0.00;;;;;;;17.59;59.68;99913.53;5009883;28;20505;-76
2023/08/25 09:25:21;;;;;;;0.00;0.00;;;;;;;17.93;58.90;99901.69;4974787;28;20487;-74
2023/08/25 09:27:47;;;;;;;0.00;0.00;;;;;;;18.38;58.14;99913.44;4992045;28;21223;-74
2023/08/25 09:30:14;;;;;;;0.00;0.00;;;;;;;18.71;57.54;99904.50;5017002;28;20021;-75
2023/08/25 09:32:40;;;;;;;0.00;0.00;;;;;;;18.98;57.21;99906.00;4981735;28;20033;-74
2023/08/25 09:35:15;;;;;;;0.00;0.00;;;;;;;19.22;56.70;99901.78;4980203;28;20032;-74
2023/08/25 09:37:42;;;;;;;0.00;0.00;;;;;;;19.64;56.23;99896.19;5010485;28;20026;-75
2023/08/25 09:40:12;;;;;;;0.00;0.00;;;;;;;19.99;54.85;99888.41;5030852;28;20021;-75
2023/08/25 09:42:38;;;;;;;0.00;0.00;;;;;;;20.38;54.55;99900.06;5009437;28;20128;-74
2023/08/25 09:45:03;;;;;;;0.00;0.00;;;;;;;20.80;53.91;99898.25;5028627;28;20120;-72
2023/08/25 09:47:30;;;;;;;0.00;0.00;;;;;;;21.28;52.11;99902.09;4988568;28;20076;-77
2023/08/25 09:49:56;;;;;;;0.00;0.00;;;;;;;21.54;51.60;99885.03;4992547;28;20037;-75
2023/08/25 09:52:26;;;;;;;0.00;0.00;;;;;;;21.86;50.31;99906.56;5003414;28;20377;-75
2023/08/25 09:54:52;;;;;;;0.00;0.00;;;;;;;21.85;49.47;99883.50;4978578;28;20030;-76
2023/08/25 09:57:18;;;;;;;0.00;0.00;;;;;;;22.30;48.54;99889.84;5012955;28;20057;-73
2023/08/25 09:59:44;;;;;;;0.00;0.00;;;;;;;23.01;47.52;99901.13;4999629;28;20492;-75
2023/08/25 10:02:11;;;;;;;0.00;0.00;;;;;;;23.57;45.66;99899.16;5001307;28;20037;-76
2023/08/25 10:04:39;;;;;;;0.00;0.00;;;;;;;24.36;44.11;99876.38;5022057;28;20053;-75
2023/08/25 10:07:05;;;;;;;0.00;0.00;;;;;;;25.78;42.20;99888.41;5022133;28;20021;-78
2023/08/25 10:09:31;;;;;;;0.00;0.00;;;;;;;26.93;40.08;99878.25;5018864;28;20030;-75
2023/08/25 10:11:58;;;;;;;0.00;0.00;;;;;;;28.28;36.96;99880.41;4983999;28;20018;-79
2023/08/25 10:14:26;;;;;;;0.00;0.00;;;;;;;28.86;33.16;99865.13;5011396;28;20076;-76
2023/08/25 10:16:53;;;;;;;0.00;0.00;;;;;;;28.97;31.86;99867.94;5004020;28;20048;-75
2023/08/25 10:19:23;;;;;;;0.00;0.00;;;;;;;28.94;32.23;99879.97;5015860;28;20033;-75
2023/08/25 10:21:50;;;;;;;0.00;0.00;;;;;;;29.12;31.69;99867.88;5009186;28;20502;-77
2023/08/25 10:24:28;;;;;;;0.00;0.00;;;;;;;30.18;31.62;99867.78;5022358;28;20120;-76
2023/08/25 10:26:58;;;;;;;0.00;0.00;;;;;;;31.38;29.49;99876.78;5026845;28;20013;-75
2023/08/25 10:29:32;;;;;;;0.00;0.00;;;;;;;32.30;26.91;99863.81;5001593;28;20033;-76
2023/08/25 10:32:02;;;;;;;0.00;0.00;;;;;;;32.11;27.35;99868.13;5012275;28;20036;-76
2023/08/25 10:34:50;;;;;;;0.00;0.00;;;;;;;31.37;26.95;99852.59;5005479;28;20082;-75
2023/08/25 10:37:26;;;;;;;0.00;0.00;;;;;;;31.33;27.00;99868.75;4973684;28;20029;-76
2023/08/25 10:39:56;;;;;;;0.00;0.00;;;;;;;31.11;27.48;99876.69;5017502;28;20029;-75
2023/08/25 10:42:25;;;;;;;0.00;0.00;;;;;;;30.66;28.13;99857.75;5003705;28;20463;-75
2023/08/25 10:44:55;;;;;;;0.00;0.00;;;;;;;31.39;27.84;99850.13;5008986;28;20120;-75
2023/08/25 10:47:22;;;;;;;0.00;0.00;;;;;;;32.61;25.82;99850.34;4998787;28;20376;-75
2023/08/25 10:49:53;;;;;;;0.00;0.00;;;;;;;34.22;24.69;99851.06;5009686;28;20080;-75
2023/08/25 10:52:20;;;;;;;0.00;0.00;;;;;;;36.17;23.13;99857.00;5010515;28;20134;-75
2023/08/25 10:54:46;;;;;;;0.00;0.00;;;;;;;37.32;21.18;99858.72;5020228;28;20014;-76
2023/08/25 10:57:37;;;;;;;0.00;0.00;;;;;;;36.83;20.96;99867.84;5003259;28;20069;-76
2023/08/25 11:00:29;;;;;;;0.00;0.00;;;;;;;37.78;20.15;99848.84;5007462;28;20041;-75
2023/08/25 11:02:56;;;;;;;0.00;0.00;;;;;;;39.58;18.35;99846.88;5022371;28;20530;-76
2023/08/25 11:05:37;;;;;;;0.00;0.00;;;;;;;38.98;17.85;99845.50;4993145;28;20053;-75
2023/08/25 11:08:04;;;;;;;0.00;0.00;;;;;;;38.53;18.34;99850.69;5010306;28;20029;-76
2023/08/25 11:10:34;;;;;;;0.00;0.00;;;;;;;35.79;20.35;99838.72;5027243;28;20024;-79
2023/08/25 11:13:03;;;;;;;0.00;0.00;;;;;;;33.05;22.76;99834.19;5015122;28;20021;-76
2023/08/25 11:15:29;;;;;;;0.00;0.00;;;;;;;31.17;25.09;99834.69;5007132;28;20355;-74
2023/08/25 11:17:54;;;;;;;0.00;0.00;;;;;;;30.46;26.08;99835.78;5006820;28;20044;-77
2023/08/25 11:20:19;;;;;;;0.00;0.00;;;;;;;29.60;26.94;99844.81;5003591;28;20045;-76
2023/08/25 11:22:52;;;;;;;0.00;0.00;;;;;;;30.59;26.29;99841.72;5027174;28;20116;-75
2023/08/25 11:25:17;;;;;;;0.00;0.00;;;;;;;32.54;25.73;99830.69;5015523;28;20030;-76
2023/08/25 11:27:43;;;;;;;0.00;0.00;;;;;;;36.23;21.59;99843.81;5008104;28;20547;-76
2023/08/25 11:30:09;;;;;;;0.00;0.00;;;;;;;37.00;19.75;99837.09;4974736;28;20153;-76
2023/08/25 11:32:36;;;;;;;0.00;0.00;;;;;;;34.65;21.71;99828.53;5020864;28;20464;-78
2023/08/25 11:35:05;;;;;;;0.00;0.00;;;;;;;33.99;22.33;99840.69;4990183;28;20037;-77
2023/08/25 11:37:55;;;;;;;0.00;0.00;;;;;;;34.64;22.76;99835.47;5017675;28;21415;-78
2023/08/25 11:40:21;;;;;;;0.00;0.00;;;;;;;36.12;21.27;99831.97;5001931;28;20052;-75
2023/08/25 11:42:46;;;;;;;0.00;0.00;;;;;;;37.16;19.72;99838.97;5015253;28;20387;-75
2023/08/25 11:45:13;;;;;;;0.00;0.00;;;;;;;38.35;18.57;99826.56;5017913;28;20383;-74
2023/08/25 11:47:38;;;;;;;0.00;0.00;;;;;;;40.76;16.74;99828.72;5014681;28;20037;-74
2023/08/25 11:50:06;;;;;;;0.00;0.00;;;;;;;40.22;16.46;99830.72;5015279;28;20018;-76
2023/08/25 11:52:34;;;;;;;0.00;0.00;;;;;;;35.05;19.91;99814.88;5008091;28;20029;-74
2023/08/25 11:55:01;;;;;;;0.00;0.00;;;;;;;33.93;22.61;99823.41;5021601;28;20018;-74
2023/08/25 11:57:37;;;;;;;0.00;0.00;;;;;;;37.70;19.43;99808.41;5013316;28;20041;-74
2023/08/25 12:00:05;;;;;;;0.00;0.00;;;;;;;40.28;17.18;99826.66;5019512;28;20026;-75
2023/08/25 12:02:31;;;;;;;0.00;0.00;;;;;;;40.62;15.80;99824.53;5026811;28;20025;-75
2023/08/25 12:05:00;;;;;;;0.00;0.00;;;;;;;37.46;18.23;99817.47;5020942;28;20484;-75
2023/08/25 12:07:37;;;;;;;0.00;0.00;;;;;;;36.36;19.84;99803.16;5007730;28;20091;-75
2023/08/25 12:10:09;;;;;;;0.00;0.00;;;;;;;35.61;20.59;99816.47;4998785;28;20018;-75
2023/08/25 12:12:38;;;;;;;0.00;0.00;;;;;;;36.49;19.98;99820.97;5007486;28;20056;-75
2023/08/25 12:15:07;;;;;;;0.00;0.00;;;;;;;37.07;19.00;99821.81;5017079;28;20108;-75
2023/08/25 12:17:34;;;;;;;0.00;0.00;;;;;;;36.54;19.00;99806.19;5012068;28;20051;-76
2023/08/25 12:20:00;;;;;;;0.00;0.00;;;;;;;34.51;20.46;99809.88;5004309;28;20033;-75
2023/08/25 12:22:25;;;;;;;0.00;0.00;;;;;;;32.26;22.91;99803.69;5001156;28;20032;-73
2023/08/25 12:24:53;;;;;;;0.00;0.00;;;;;;;30.52;25.41;99801.47;5020426;28;20120;-74
2023/08/25 12:27:19;;;;;;;0.00;0.00;;;;;;;29.20;26.82;99787.84;4999889;28;20041;-75
2023/08/25 12:29:44;;;;;;;0.00;0.00;;;;;;;28.66;27.44;99794.44;4986210;28;20029;-74
2023/08/25 12:32:12;;;;;;;0.00;0.00;;;;;;;28.35;28.09;99785.63;5005220;28;20433;-75